sensor_id;sensor_type;location;lat;lon;timestamp;P1;durP1;ratioP1;P2;durP2;ratioP2
59052;SDS011;44843;44.728;10.396;2023-04-03T00:00:28;4.05;;;1.90;;
59052;SDS011;44843;44.728;10.396;2023-04-03T00:02:54;4.82;;;1.70;;
59052;SDS011;44843;44.728;10.396;2023-04-03T00:05:19;2.55;;;2.00;;
59052;SDS011;44843;44.728;10.396;2023-04-03T00:07:45;1.45;;;1.35;;
59052;SDS011;44843;44.728;10.396;2023-04-03T00:10:10;2.28;;;1.60;;
59052;SDS011;44843;44.728;10.396;2023-04-03T00:12:36;3.60;;;1.58;;
59052;SDS011;44843;44.728;10.396;2023-04-03T00:15:01;1.80;;;1.20;;
59052;SDS011;44843;44.728;10.396;2023-04-03T00:17:26;2.25;;;1.77;;
59052;SDS011;44843;44.728;10.396;2023-04-03T00:19:51;1.80;;;1.50;;
59052;SDS011;44843;44.728;10.396;2023-04-03T00:22:17;2.85;;;1.60;;
59052;SDS011;44843;44.728;10.396;2023-04-03T00:24:42;1.73;;;1.50;;
59052;SDS011;44843;44.728;10.396;2023-04-03T00:27:07;3.20;;;1.90;;
59052;SDS011;44843;44.728;10.396;2023-04-03T00:29:32;2.90;;;1.73;;
59052;SDS011;44843;44.728;10.396;2023-04-03T00:31:58;1.88;;;1.48;;
59052;SDS011;44843;44.728;10.396;2023-04-03T00:34:23;1.80;;;1.40;;
59052;SDS011;44843;44.728;10.396;2023-04-03T00:36:48;2.03;;;1.63;;
59052;SDS011;44843;44.728;10.396;2023-04-03T00:39:13;1.50;;;1.40;;
59052;SDS011;44843;44.728;10.396;2023-04-03T00:41:39;3.13;;;1.95;;
59052;SDS011;44843;44.728;10.396;2023-04-03T00:44:18;1.98;;;1.60;;
59052;SDS011;44843;44.728;10.396;2023-04-03T00:46:44;1.95;;;1.50;;
59052;SDS011;44843;44.728;10.396;2023-04-03T00:49:09;3.55;;;1.60;;
59052;SDS011;44843;44.728;10.396;2023-04-03T00:51:35;1.80;;;1.38;;
59052;SDS011;44843;44.728;10.396;2023-04-03T00:54:01;1.55;;;1.45;;
59052;SDS011;44843;44.728;10.396;2023-04-03T00:56:27;2.22;;;1.70;;
59052;SDS011;44843;44.728;10.396;2023-04-03T00:58:56;2.47;;;1.83;;
59052;SDS011;44843;44.728;10.396;2023-04-03T01:01:25;1.55;;;1.45;;
59052;SDS011;44843;44.728;10.396;2023-04-03T01:03:51;2.35;;;1.60;;
59052;SDS011;44843;44.728;10.396;2023-04-03T01:06:17;1.73;;;1.63;;
59052;SDS011;44843;44.728;10.396;2023-04-03T01:08:45;3.05;;;1.85;;
59052;SDS011;44843;44.728;10.396;2023-04-03T01:11:12;1.90;;;1.70;;
59052;SDS011;44843;44.728;10.396;2023-04-03T01:13:37;1.98;;;1.77;;
59052;SDS011;44843;44.728;10.396;2023-04-03T01:16:03;2.15;;;1.60;;
59052;SDS011;44843;44.728;10.396;2023-04-03T01:18:29;3.10;;;1.88;;
59052;SDS011;44843;44.728;10.396;2023-04-03T01:25:50;2.45;;;1.70;;
59052;SDS011;44843;44.728;10.396;2023-04-03T01:28:25;2.42;;;1.98;;
59052;SDS011;44843;44.728;10.396;2023-04-03T01:33:25;3.67;;;1.55;;
59052;SDS011;44843;44.728;10.396;2023-04-03T01:35:51;4.22;;;1.88;;
59052;SDS011;44843;44.728;10.396;2023-04-03T01:38:16;3.15;;;1.70;;
59052;SDS011;44843;44.728;10.396;2023-04-03T01:40:41;2.75;;;2.05;;
59052;SDS011;44843;44.728;10.396;2023-04-03T01:43:06;2.75;;;1.80;;
59052;SDS011;44843;44.728;10.396;2023-04-03T01:45:32;1.70;;;1.60;;
59052;SDS011;44843;44.728;10.396;2023-04-03T01:47:57;3.22;;;1.90;;
59052;SDS011;44843;44.728;10.396;2023-04-03T01:50:22;2.85;;;2.08;;
59052;SDS011;44843;44.728;10.396;2023-04-03T01:52:47;2.33;;;1.90;;
59052;SDS011;44843;44.728;10.396;2023-04-03T01:55:13;2.85;;;2.00;;
59052;SDS011;44843;44.728;10.396;2023-04-03T01:57:38;1.90;;;1.60;;
59052;SDS011;44843;44.728;10.396;2023-04-03T02:00:03;4.47;;;2.35;;
59052;SDS011;44843;44.728;10.396;2023-04-03T02:02:29;2.53;;;1.90;;
59052;SDS011;44843;44.728;10.396;2023-04-03T02:04:54;2.25;;;1.77;;
59052;SDS011;44843;44.728;10.396;2023-04-03T02:07:19;5.65;;;1.98;;
59052;SDS011;44843;44.728;10.396;2023-04-03T02:09:45;4.38;;;2.30;;
59052;SDS011;44843;44.728;10.396;2023-04-03T02:12:10;2.95;;;1.98;;
59052;SDS011;44843;44.728;10.396;2023-04-03T02:14:35;3.42;;;2.10;;
59052;SDS011;44843;44.728;10.396;2023-04-03T02:17:01;2.58;;;1.75;;
59052;SDS011;44843;44.728;10.396;2023-04-03T02:19:30;3.35;;;1.70;;
59052;SDS011;44843;44.728;10.396;2023-04-03T02:21:55;1.83;;;1.70;;
59052;SDS011;44843;44.728;10.396;2023-04-03T02:24:20;3.85;;;1.90;;
59052;SDS011;44843;44.728;10.396;2023-04-03T02:26:45;2.67;;;2.10;;
59052;SDS011;44843;44.728;10.396;2023-04-03T02:29:11;2.15;;;1.95;;
59052;SDS011;44843;44.728;10.396;2023-04-03T02:31:36;3.92;;;2.03;;
59052;SDS011;44843;44.728;10.396;2023-04-03T02:34:01;3.33;;;1.90;;
59052;SDS011;44843;44.728;10.396;2023-04-03T02:36:26;2.55;;;2.20;;
59052;SDS011;44843;44.728;10.396;2023-04-03T02:38:52;2.83;;;2.05;;
59052;SDS011;44843;44.728;10.396;2023-04-03T02:41:17;5.72;;;2.10;;
59052;SDS011;44843;44.728;10.396;2023-04-03T02:43:42;4.88;;;2.45;;
59052;SDS011;44843;44.728;10.396;2023-04-03T02:46:07;2.85;;;2.10;;
59052;SDS011;44843;44.728;10.396;2023-04-03T02:48:33;4.40;;;2.20;;
59052;SDS011;44843;44.728;10.396;2023-04-03T02:50:58;3.45;;;2.42;;
59052;SDS011;44843;44.728;10.396;2023-04-03T02:53:23;3.00;;;2.20;;
59052;SDS011;44843;44.728;10.396;2023-04-03T02:55:49;2.33;;;2.10;;
59052;SDS011;44843;44.728;10.396;2023-04-03T02:58:14;4.50;;;2.60;;
59052;SDS011;44843;44.728;10.396;2023-04-03T03:00:40;4.03;;;3.00;;
59052;SDS011;44843;44.728;10.396;2023-04-03T03:03:05;3.00;;;2.40;;
59052;SDS011;44843;44.728;10.396;2023-04-03T03:05:31;5.30;;;2.33;;
59052;SDS011;44843;44.728;10.396;2023-04-03T03:07:57;3.35;;;2.25;;
59052;SDS011;44843;44.728;10.396;2023-04-03T03:10:22;4.30;;;2.58;;
59052;SDS011;44843;44.728;10.396;2023-04-03T03:12:47;5.30;;;2.08;;
59052;SDS011;44843;44.728;10.396;2023-04-03T03:15:12;3.78;;;2.33;;
59052;SDS011;44843;44.728;10.396;2023-04-03T03:17:38;3.28;;;2.08;;
59052;SDS011;44843;44.728;10.396;2023-04-03T03:20:06;2.90;;;2.10;;
59052;SDS011;44843;44.728;10.396;2023-04-03T03:22:32;3.97;;;2.20;;
59052;SDS011;44843;44.728;10.396;2023-04-03T03:24:57;3.65;;;2.22;;
59052;SDS011;44843;44.728;10.396;2023-04-03T03:27:22;2.63;;;2.05;;
59052;SDS011;44843;44.728;10.396;2023-04-03T03:29:48;3.28;;;2.50;;
59052;SDS011;44843;44.728;10.396;2023-04-03T03:32:14;2.65;;;2.15;;
59052;SDS011;44843;44.728;10.396;2023-04-03T03:34:39;4.35;;;2.65;;
59052;SDS011;44843;44.728;10.396;2023-04-03T03:37:04;4.63;;;2.60;;
59052;SDS011;44843;44.728;10.396;2023-04-03T03:39:30;3.88;;;2.38;;
59052;SDS011;44843;44.728;10.396;2023-04-03T03:41:55;4.40;;;2.60;;
59052;SDS011;44843;44.728;10.396;2023-04-03T03:44:20;4.10;;;2.70;;
59052;SDS011;44843;44.728;10.396;2023-04-03T03:46:46;2.90;;;2.30;;
59052;SDS011;44843;44.728;10.396;2023-04-03T03:49:11;3.28;;;2.53;;
59052;SDS011;44843;44.728;10.396;2023-04-03T03:51:37;3.60;;;2.53;;
59052;SDS011;44843;44.728;10.396;2023-04-03T03:54:02;4.40;;;2.45;;
59052;SDS011;44843;44.728;10.396;2023-04-03T03:56:28;4.63;;;2.33;;
59052;SDS011;44843;44.728;10.396;2023-04-03T03:58:53;5.13;;;2.50;;
59052;SDS011;44843;44.728;10.396;2023-04-03T04:01:18;5.05;;;3.05;;
59052;SDS011;44843;44.728;10.396;2023-04-03T04:03:43;3.45;;;2.60;;
59052;SDS011;44843;44.728;10.396;2023-04-03T04:06:09;4.57;;;2.88;;
59052;SDS011;44843;44.728;10.396;2023-04-03T04:08:34;5.13;;;2.70;;
59052;SDS011;44843;44.728;10.396;2023-04-03T04:10:59;4.93;;;2.85;;
59052;SDS011;44843;44.728;10.396;2023-04-03T04:13:24;4.20;;;2.60;;
59052;SDS011;44843;44.728;10.396;2023-04-03T04:15:50;3.72;;;2.72;;
59052;SDS011;44843;44.728;10.396;2023-04-03T04:18:15;4.88;;;2.95;;
59052;SDS011;44843;44.728;10.396;2023-04-03T04:20:40;3.20;;;2.60;;
59052;SDS011;44843;44.728;10.396;2023-04-03T04:23:06;3.70;;;2.60;;
59052;SDS011;44843;44.728;10.396;2023-04-03T04:25:31;4.00;;;2.65;;
59052;SDS011;44843;44.728;10.396;2023-04-03T04:27:56;4.97;;;2.90;;
59052;SDS011;44843;44.728;10.396;2023-04-03T04:30:21;4.60;;;2.95;;
59052;SDS011;44843;44.728;10.396;2023-04-03T04:32:47;4.18;;;2.92;;
59052;SDS011;44843;44.728;10.396;2023-04-03T04:35:12;3.33;;;2.67;;
59052;SDS011;44843;44.728;10.396;2023-04-03T04:37:37;4.68;;;2.90;;
59052;SDS011;44843;44.728;10.396;2023-04-03T04:40:02;3.83;;;2.92;;
59052;SDS011;44843;44.728;10.396;2023-04-03T04:42:28;5.53;;;2.90;;
59052;SDS011;44843;44.728;10.396;2023-04-03T04:44:53;4.03;;;2.80;;
59052;SDS011;44843;44.728;10.396;2023-04-03T04:47:18;4.07;;;2.90;;
59052;SDS011;44843;44.728;10.396;2023-04-03T04:49:44;3.80;;;2.85;;
59052;SDS011;44843;44.728;10.396;2023-04-03T04:52:09;4.40;;;2.88;;
59052;SDS011;44843;44.728;10.396;2023-04-03T04:54:34;10.93;;;3.72;;
59052;SDS011;44843;44.728;10.396;2023-04-03T04:57:00;7.15;;;3.17;;
59052;SDS011;44843;44.728;10.396;2023-04-03T04:59:25;4.97;;;2.95;;
59052;SDS011;44843;44.728;10.396;2023-04-03T05:01:50;6.32;;;4.30;;
59052;SDS011;44843;44.728;10.396;2023-04-03T05:04:16;5.47;;;3.00;;
59052;SDS011;44843;44.728;10.396;2023-04-03T05:06:42;6.15;;;3.67;;
59052;SDS011;44843;44.728;10.396;2023-04-03T05:09:07;7.75;;;4.35;;
59052;SDS011;44843;44.728;10.396;2023-04-03T05:11:33;7.18;;;3.05;;
59052;SDS011;44843;44.728;10.396;2023-04-03T05:13:59;4.85;;;3.17;;
59052;SDS011;44843;44.728;10.396;2023-04-03T05:16:24;3.80;;;2.72;;
59052;SDS011;44843;44.728;10.396;2023-04-03T05:18:50;4.80;;;3.33;;
59052;SDS011;44843;44.728;10.396;2023-04-03T05:21:15;5.18;;;3.28;;
59052;SDS011;44843;44.728;10.396;2023-04-03T05:23:40;5.28;;;3.20;;
59052;SDS011;44843;44.728;10.396;2023-04-03T05:26:06;5.97;;;3.15;;
59052;SDS011;44843;44.728;10.396;2023-04-03T05:28:31;4.65;;;3.25;;
59052;SDS011;44843;44.728;10.396;2023-04-03T05:30:57;7.32;;;3.10;;
59052;SDS011;44843;44.728;10.396;2023-04-03T05:33:23;6.88;;;3.50;;
59052;SDS011;44843;44.728;10.396;2023-04-03T05:35:48;4.40;;;2.92;;
59052;SDS011;44843;44.728;10.396;2023-04-03T05:38:13;5.80;;;3.20;;
59052;SDS011;44843;44.728;10.396;2023-04-03T05:40:38;5.63;;;3.03;;
59052;SDS011;44843;44.728;10.396;2023-04-03T05:43:04;3.67;;;2.85;;
59052;SDS011;44843;44.728;10.396;2023-04-03T05:45:29;7.32;;;3.60;;
59052;SDS011;44843;44.728;10.396;2023-04-03T05:47:54;4.82;;;3.22;;
59052;SDS011;44843;44.728;10.396;2023-04-03T05:50:20;4.82;;;3.55;;
59052;SDS011;44843;44.728;10.396;2023-04-03T05:52:46;5.65;;;3.42;;
59052;SDS011;44843;44.728;10.396;2023-04-03T05:55:12;6.25;;;3.20;;
59052;SDS011;44843;44.728;10.396;2023-04-03T05:57:37;8.23;;;4.35;;
59052;SDS011;44843;44.728;10.396;2023-04-03T06:00:04;7.10;;;4.15;;
59052;SDS011;44843;44.728;10.396;2023-04-03T06:02:30;7.75;;;4.18;;
59052;SDS011;44843;44.728;10.396;2023-04-03T06:04:56;8.32;;;3.85;;
59052;SDS011;44843;44.728;10.396;2023-04-03T06:07:22;6.53;;;4.05;;
59052;SDS011;44843;44.728;10.396;2023-04-03T06:09:48;5.18;;;3.50;;
59052;SDS011;44843;44.728;10.396;2023-04-03T06:12:13;8.82;;;3.78;;
59052;SDS011;44843;44.728;10.396;2023-04-03T06:14:39;5.82;;;3.38;;
59052;SDS011;44843;44.728;10.396;2023-04-03T06:17:04;7.03;;;3.13;;
59052;SDS011;44843;44.728;10.396;2023-04-03T06:19:30;4.15;;;3.00;;
59052;SDS011;44843;44.728;10.396;2023-04-03T06:21:55;4.95;;;3.38;;
59052;SDS011;44843;44.728;10.396;2023-04-03T06:24:21;5.30;;;3.20;;
59052;SDS011;44843;44.728;10.396;2023-04-03T06:26:48;8.07;;;3.38;;
59052;SDS011;44843;44.728;10.396;2023-04-03T06:29:14;4.65;;;3.33;;
59052;SDS011;44843;44.728;10.396;2023-04-03T06:31:40;4.93;;;3.08;;
59052;SDS011;44843;44.728;10.396;2023-04-03T06:34:05;6.93;;;3.60;;
59052;SDS011;44843;44.728;10.396;2023-04-03T06:36:32;4.88;;;3.70;;
59052;SDS011;44843;44.728;10.396;2023-04-03T06:38:57;5.30;;;3.60;;
59052;SDS011;44843;44.728;10.396;2023-04-03T06:41:22;6.07;;;3.65;;
59052;SDS011;44843;44.728;10.396;2023-04-03T06:43:48;9.02;;;3.75;;
59052;SDS011;44843;44.728;10.396;2023-04-03T06:46:17;6.72;;;3.95;;
59052;SDS011;44843;44.728;10.396;2023-04-03T06:48:43;6.25;;;4.38;;
59052;SDS011;44843;44.728;10.396;2023-04-03T06:51:14;6.05;;;4.00;;
59052;SDS011;44843;44.728;10.396;2023-04-03T06:53:42;6.65;;;4.57;;
59052;SDS011;44843;44.728;10.396;2023-04-03T06:56:07;6.57;;;4.88;;
59052;SDS011;44843;44.728;10.396;2023-04-03T06:58:32;6.78;;;4.53;;
59052;SDS011;44843;44.728;10.396;2023-04-03T07:00:58;6.88;;;4.50;;
59052;SDS011;44843;44.728;10.396;2023-04-03T07:03:23;6.65;;;4.60;;
59052;SDS011;44843;44.728;10.396;2023-04-03T07:05:48;9.05;;;4.65;;
59052;SDS011;44843;44.728;10.396;2023-04-03T07:08:14;10.20;;;5.10;;
59052;SDS011;44843;44.728;10.396;2023-04-03T07:10:39;8.45;;;5.15;;
59052;SDS011;44843;44.728;10.396;2023-04-03T07:13:04;8.93;;;5.32;;
59052;SDS011;44843;44.728;10.396;2023-04-03T07:15:30;7.90;;;6.30;;
59052;SDS011;44843;44.728;10.396;2023-04-03T07:22:46;11.70;;;7.50;;
59052;SDS011;44843;44.728;10.396;2023-04-03T07:25:11;7.50;;;6.47;;
59052;SDS011;44843;44.728;10.396;2023-04-03T07:27:36;7.38;;;5.75;;
59052;SDS011;44843;44.728;10.396;2023-04-03T07:30:01;9.45;;;6.75;;
59052;SDS011;44843;44.728;10.396;2023-04-03T07:32:28;8.45;;;7.03;;
59052;SDS011;44843;44.728;10.396;2023-04-03T07:34:53;8.88;;;6.35;;
59052;SDS011;44843;44.728;10.396;2023-04-03T07:37:19;8.77;;;6.35;;
59052;SDS011;44843;44.728;10.396;2023-04-03T07:39:44;10.50;;;6.93;;
59052;SDS011;44843;44.728;10.396;2023-04-03T07:42:09;9.05;;;6.78;;
59052;SDS011;44843;44.728;10.396;2023-04-03T07:44:35;8.32;;;6.85;;
59052;SDS011;44843;44.728;10.396;2023-04-03T07:47:00;12.77;;;7.60;;
59052;SDS011;44843;44.728;10.396;2023-04-03T07:49:25;9.93;;;6.38;;
59052;SDS011;44843;44.728;10.396;2023-04-03T07:51:51;7.25;;;5.93;;
59052;SDS011;44843;44.728;10.396;2023-04-03T07:54:16;8.23;;;6.38;;
59052;SDS011;44843;44.728;10.396;2023-04-03T07:56:41;10.65;;;6.88;;
59052;SDS011;44843;44.728;10.396;2023-04-03T07:59:08;10.88;;;7.43;;
59052;SDS011;44843;44.728;10.396;2023-04-03T08:01:33;9.77;;;7.75;;
59052;SDS011;44843;44.728;10.396;2023-04-03T08:03:58;8.73;;;7.50;;
59052;SDS011;44843;44.728;10.396;2023-04-03T08:06:25;11.15;;;8.10;;
59052;SDS011;44843;44.728;10.396;2023-04-03T08:08:51;9.95;;;7.53;;
59052;SDS011;44843;44.728;10.396;2023-04-03T08:11:16;10.25;;;7.50;;
59052;SDS011;44843;44.728;10.396;2023-04-03T08:13:43;12.10;;;8.13;;
59052;SDS011;44843;44.728;10.396;2023-04-03T08:16:10;13.15;;;7.70;;
59052;SDS011;44843;44.728;10.396;2023-04-03T08:18:35;13.40;;;7.95;;
59052;SDS011;44843;44.728;10.396;2023-04-03T08:21:00;11.02;;;7.35;;
59052;SDS011;44843;44.728;10.396;2023-04-03T08:23:26;9.93;;;7.82;;
59052;SDS011;44843;44.728;10.396;2023-04-03T08:25:51;10.95;;;8.30;;
59052;SDS011;44843;44.728;10.396;2023-04-03T08:28:16;10.52;;;8.05;;
59052;SDS011;44843;44.728;10.396;2023-04-03T08:30:42;11.55;;;7.93;;
59052;SDS011;44843;44.728;10.396;2023-04-03T08:33:07;13.93;;;8.13;;
59052;SDS011;44843;44.728;10.396;2023-04-03T08:35:33;10.57;;;8.23;;
59052;SDS011;44843;44.728;10.396;2023-04-03T08:37:58;11.02;;;7.70;;
59052;SDS011;44843;44.728;10.396;2023-04-03T08:40:23;13.05;;;8.63;;
59052;SDS011;44843;44.728;10.396;2023-04-03T08:42:54;10.98;;;8.20;;
59052;SDS011;44843;44.728;10.396;2023-04-03T08:48:06;12.40;;;8.18;;
59052;SDS011;44843;44.728;10.396;2023-04-03T08:50:37;10.38;;;8.05;;
59052;SDS011;44843;44.728;10.396;2023-04-03T08:53:04;13.43;;;8.65;;
59052;SDS011;44843;44.728;10.396;2023-04-03T08:55:33;12.65;;;9.27;;
59052;SDS011;44843;44.728;10.396;2023-04-03T08:58:02;11.82;;;8.00;;
59052;SDS011;44843;44.728;10.396;2023-04-03T09:01:13;11.18;;;8.80;;
59052;SDS011;44843;44.728;10.396;2023-04-03T09:03:18;13.05;;;8.93;;
59052;SDS011;44843;44.728;10.396;2023-04-03T09:08:21;11.90;;;8.65;;
59052;SDS011;44843;44.728;10.396;2023-04-03T09:10:48;12.52;;;8.40;;
59052;SDS011;44843;44.728;10.396;2023-04-03T09:13:24;11.70;;;8.93;;
59052;SDS011;44843;44.728;10.396;2023-04-03T09:18:20;10.27;;;8.07;;
59052;SDS011;44843;44.728;10.396;2023-04-03T09:23:32;11.93;;;7.63;;
59052;SDS011;44843;44.728;10.396;2023-04-03T09:26:05;9.50;;;7.13;;
59052;SDS011;44843;44.728;10.396;2023-04-03T09:31:00;10.07;;;6.85;;
59052;SDS011;44843;44.728;10.396;2023-04-03T09:33:25;9.23;;;6.72;;
59052;SDS011;44843;44.728;10.396;2023-04-03T09:35:51;8.50;;;5.78;;
59052;SDS011;44843;44.728;10.396;2023-04-03T09:38:17;8.75;;;5.28;;
59052;SDS011;44843;44.728;10.396;2023-04-03T09:40:44;9.52;;;5.95;;
59052;SDS011;44843;44.728;10.396;2023-04-03T09:57:43;6.45;;;5.40;;
59052;SDS011;44843;44.728;10.396;2023-04-03T10:00:19;8.88;;;5.05;;
59052;SDS011;44843;44.728;10.396;2023-04-03T10:02:46;7.07;;;4.60;;
59052;SDS011;44843;44.728;10.396;2023-04-03T10:05:25;8.98;;;5.40;;
59052;SDS011;44843;44.728;10.396;2023-04-03T10:07:51;5.63;;;4.20;;
59052;SDS011;44843;44.728;10.396;2023-04-03T10:10:20;6.50;;;4.57;;
59052;SDS011;44843;44.728;10.396;2023-04-03T10:12:47;5.95;;;4.00;;
59052;SDS011;44843;44.728;10.396;2023-04-03T10:15:14;5.22;;;4.43;;
59052;SDS011;44843;44.728;10.396;2023-04-03T10:18:00;6.78;;;4.80;;
59052;SDS011;44843;44.728;10.396;2023-04-03T10:20:32;7.28;;;4.53;;
59052;SDS011;44843;44.728;10.396;2023-04-03T10:28:24;7.18;;;4.22;;
59052;SDS011;44843;44.728;10.396;2023-04-03T10:33:33;5.85;;;3.97;;
59052;SDS011;44843;44.728;10.396;2023-04-03T10:39:04;6.55;;;5.03;;
59052;SDS011;44843;44.728;10.396;2023-04-03T10:46:51;8.27;;;4.50;;
59052;SDS011;44843;44.728;10.396;2023-04-03T10:54:46;7.57;;;3.63;;
59052;SDS011;44843;44.728;10.396;2023-04-03T10:57:14;3.95;;;3.50;;
59052;SDS011;44843;44.728;10.396;2023-04-03T10:59:53;5.90;;;3.75;;
59052;SDS011;44843;44.728;10.396;2023-04-03T11:02:23;5.28;;;3.50;;
59052;SDS011;44843;44.728;10.396;2023-04-03T11:05:00;5.07;;;3.85;;
59052;SDS011;44843;44.728;10.396;2023-04-03T11:07:26;5.60;;;3.92;;
59052;SDS011;44843;44.728;10.396;2023-04-03T11:09:55;4.40;;;3.45;;
59052;SDS011;44843;44.728;10.396;2023-04-03T11:12:23;5.07;;;3.88;;
59052;SDS011;44843;44.728;10.396;2023-04-03T11:14:50;3.90;;;3.60;;
59052;SDS011;44843;44.728;10.396;2023-04-03T11:22:18;4.88;;;3.05;;
59052;SDS011;44843;44.728;10.396;2023-04-03T11:24:55;4.70;;;3.30;;
59052;SDS011;44843;44.728;10.396;2023-04-03T11:27:22;3.10;;;2.80;;
59052;SDS011;44843;44.728;10.396;2023-04-03T11:29:48;3.60;;;2.45;;
59052;SDS011;44843;44.728;10.396;2023-04-03T11:34:59;2.60;;;2.22;;
59052;SDS011;44843;44.728;10.396;2023-04-03T11:37:31;2.40;;;2.20;;
59052;SDS011;44843;44.728;10.396;2023-04-03T11:40:03;3.60;;;2.15;;
59052;SDS011;44843;44.728;10.396;2023-04-03T11:47:45;4.57;;;2.00;;
59052;SDS011;44843;44.728;10.396;2023-04-03T11:55:44;3.80;;;2.38;;
59052;SDS011;44843;44.728;10.396;2023-04-03T11:58:17;2.20;;;2.00;;
59052;SDS011;44843;44.728;10.396;2023-04-03T12:05:48;1.70;;;1.45;;
59052;SDS011;44843;44.728;10.396;2023-04-03T12:13:31;2.38;;;1.70;;
59052;SDS011;44843;44.728;10.396;2023-04-03T12:15:57;1.83;;;1.33;;
59052;SDS011;44843;44.728;10.396;2023-04-03T12:18:43;2.20;;;1.58;;
59052;SDS011;44843;44.728;10.396;2023-04-03T12:21:10;2.35;;;1.67;;
59052;SDS011;44843;44.728;10.396;2023-04-03T12:23:36;3.42;;;1.60;;
59052;SDS011;44843;44.728;10.396;2023-04-03T12:26:18;5.13;;;1.65;;
59052;SDS011;44843;44.728;10.396;2023-04-03T12:28:44;3.00;;;1.58;;
59052;SDS011;44843;44.728;10.396;2023-04-03T12:31:11;1.67;;;1.45;;
59052;SDS011;44843;44.728;10.396;2023-04-03T12:36:05;3.38;;;1.52;;
59052;SDS011;44843;44.728;10.396;2023-04-03T12:38:41;3.30;;;1.77;;
59052;SDS011;44843;44.728;10.396;2023-04-03T12:41:18;3.85;;;2.03;;
59052;SDS011;44843;44.728;10.396;2023-04-03T12:43:53;2.40;;;1.60;;
59052;SDS011;44843;44.728;10.396;2023-04-03T12:46:22;2.03;;;1.50;;
59052;SDS011;44843;44.728;10.396;2023-04-03T12:48:48;1.95;;;1.38;;
59052;SDS011;44843;44.728;10.396;2023-04-03T12:51:19;2.88;;;1.55;;
59052;SDS011;44843;44.728;10.396;2023-04-03T12:53:46;5.53;;;1.83;;
59052;SDS011;44843;44.728;10.396;2023-04-03T12:56:24;2.97;;;1.73;;
59052;SDS011;44843;44.728;10.396;2023-04-03T12:58:50;2.78;;;1.60;;
59052;SDS011;44843;44.728;10.396;2023-04-03T13:01:16;4.70;;;1.88;;
59052;SDS011;44843;44.728;10.396;2023-04-03T13:04:01;2.95;;;2.10;;
59052;SDS011;44843;44.728;10.396;2023-04-03T13:06:30;3.75;;;1.92;;
59052;SDS011;44843;44.728;10.396;2023-04-03T13:08:57;5.70;;;2.30;;
59052;SDS011;44843;44.728;10.396;2023-04-03T13:11:24;4.47;;;2.20;;
59052;SDS011;44843;44.728;10.396;2023-04-03T13:16:22;1.98;;;1.80;;
59052;SDS011;44843;44.728;10.396;2023-04-03T13:18:51;2.92;;;1.75;;
59052;SDS011;44843;44.728;10.396;2023-04-03T13:21:18;3.38;;;2.40;;
59052;SDS011;44843;44.728;10.396;2023-04-03T13:23:45;6.13;;;2.65;;
59052;SDS011;44843;44.728;10.396;2023-04-03T13:26:11;8.95;;;3.38;;
59052;SDS011;44843;44.728;10.396;2023-04-03T13:28:37;4.40;;;3.22;;
59052;SDS011;44843;44.728;10.396;2023-04-03T13:31:08;8.13;;;4.40;;
59052;SDS011;44843;44.728;10.396;2023-04-03T13:33:39;4.60;;;4.10;;
59052;SDS011;44843;44.728;10.396;2023-04-03T13:36:11;5.10;;;3.67;;
59052;SDS011;44843;44.728;10.396;2023-04-03T13:38:41;4.85;;;2.92;;
59052;SDS011;44843;44.728;10.396;2023-04-03T13:46:48;4.20;;;2.85;;
59052;SDS011;44843;44.728;10.396;2023-04-03T13:51:44;3.42;;;2.70;;
59052;SDS011;44843;44.728;10.396;2023-04-03T13:54:16;4.90;;;2.55;;
59052;SDS011;44843;44.728;10.396;2023-04-03T13:56:43;3.53;;;2.50;;
59052;SDS011;44843;44.728;10.396;2023-04-03T14:04:18;5.80;;;2.53;;
59052;SDS011;44843;44.728;10.396;2023-04-03T14:06:43;4.95;;;2.45;;
59052;SDS011;44843;44.728;10.396;2023-04-03T14:09:09;4.22;;;2.53;;
59052;SDS011;44843;44.728;10.396;2023-04-03T14:11:34;3.90;;;2.20;;
59052;SDS011;44843;44.728;10.396;2023-04-03T14:14:01;3.17;;;2.28;;
59052;SDS011;44843;44.728;10.396;2023-04-03T14:16:28;4.97;;;2.20;;
59052;SDS011;44843;44.728;10.396;2023-04-03T14:18:54;6.53;;;2.20;;
59052;SDS011;44843;44.728;10.396;2023-04-03T14:21:20;2.75;;;1.90;;
59052;SDS011;44843;44.728;10.396;2023-04-03T14:23:46;4.20;;;2.45;;
59052;SDS011;44843;44.728;10.396;2023-04-03T14:26:12;6.45;;;2.45;;
59052;SDS011;44843;44.728;10.396;2023-04-03T14:28:38;3.47;;;1.70;;
59052;SDS011;44843;44.728;10.396;2023-04-03T14:31:05;2.75;;;2.00;;
59052;SDS011;44843;44.728;10.396;2023-04-03T14:33:30;3.08;;;1.88;;
59052;SDS011;44843;44.728;10.396;2023-04-03T14:35:59;3.55;;;1.92;;
59052;SDS011;44843;44.728;10.396;2023-04-03T14:38:26;3.67;;;2.20;;
59052;SDS011;44843;44.728;10.396;2023-04-03T14:40:52;2.50;;;1.98;;
59052;SDS011;44843;44.728;10.396;2023-04-03T14:43:17;4.80;;;2.10;;
59052;SDS011;44843;44.728;10.396;2023-04-03T14:45:43;4.25;;;1.90;;
59052;SDS011;44843;44.728;10.396;2023-04-03T14:48:11;3.22;;;1.48;;
59052;SDS011;44843;44.728;10.396;2023-04-03T14:50:40;7.60;;;1.58;;
59052;SDS011;44843;44.728;10.396;2023-04-03T14:53:05;3.63;;;1.50;;
59052;SDS011;44843;44.728;10.396;2023-04-03T14:55:31;4.25;;;1.60;;
59052;SDS011;44843;44.728;10.396;2023-04-03T14:57:57;4.45;;;1.55;;
59052;SDS011;44843;44.728;10.396;2023-04-03T15:00:22;4.90;;;1.42;;
59052;SDS011;44843;44.728;10.396;2023-04-03T15:02:48;4.35;;;1.65;;
59052;SDS011;44843;44.728;10.396;2023-04-03T15:05:13;2.30;;;1.23;;
59052;SDS011;44843;44.728;10.396;2023-04-03T15:07:40;3.85;;;1.40;;
59052;SDS011;44843;44.728;10.396;2023-04-03T15:10:14;1.33;;;0.90;;
59052;SDS011;44843;44.728;10.396;2023-04-03T15:12:40;3.33;;;1.05;;
59052;SDS011;44843;44.728;10.396;2023-04-03T15:15:05;3.90;;;0.98;;
59052;SDS011;44843;44.728;10.396;2023-04-03T15:17:31;1.38;;;0.82;;
59052;SDS011;44843;44.728;10.396;2023-04-03T15:19:56;2.03;;;1.08;;
59052;SDS011;44843;44.728;10.396;2023-04-03T15:22:22;5.57;;;1.15;;
59052;SDS011;44843;44.728;10.396;2023-04-03T15:24:48;2.25;;;0.95;;
59052;SDS011;44843;44.728;10.396;2023-04-03T15:27:13;3.25;;;1.08;;
59052;SDS011;44843;44.728;10.396;2023-04-03T15:29:40;0.82;;;0.75;;
59052;SDS011;44843;44.728;10.396;2023-04-03T15:32:06;3.55;;;0.82;;
59052;SDS011;44843;44.728;10.396;2023-04-03T15:34:31;4.75;;;1.08;;
59052;SDS011;44843;44.728;10.396;2023-04-03T15:36:57;2.30;;;0.77;;
59052;SDS011;44843;44.728;10.396;2023-04-03T16:28:08;0.93;;;0.70;;
59052;SDS011;44843;44.728;10.396;2023-04-03T16:30:33;1.27;;;0.80;;
59052;SDS011;44843;44.728;10.396;2023-04-03T16:32:58;3.22;;;0.85;;
59052;SDS011;44843;44.728;10.396;2023-04-03T16:35:23;2.92;;;0.95;;
59052;SDS011;44843;44.728;10.396;2023-04-03T16:37:49;1.15;;;0.77;;
59052;SDS011;44843;44.728;10.396;2023-04-03T16:40:14;2.58;;;1.08;;
59052;SDS011;44843;44.728;10.396;2023-04-03T16:42:39;1.77;;;0.90;;
59052;SDS011;44843;44.728;10.396;2023-04-03T16:45:05;1.70;;;0.88;;
59052;SDS011;44843;44.728;10.396;2023-04-03T16:47:31;2.70;;;0.98;;
59052;SDS011;44843;44.728;10.396;2023-04-03T16:49:56;3.22;;;1.30;;
59052;SDS011;44843;44.728;10.396;2023-04-03T16:52:21;11.57;;;1.80;;
59052;SDS011;44843;44.728;10.396;2023-04-03T16:54:47;5.38;;;1.70;;
59052;SDS011;44843;44.728;10.396;2023-04-03T16:57:12;1.60;;;1.50;;
59052;SDS011;44843;44.728;10.396;2023-04-03T16:59:37;1.30;;;1.20;;
59052;SDS011;44843;44.728;10.396;2023-04-03T17:02:02;5.20;;;1.70;;
59052;SDS011;44843;44.728;10.396;2023-04-03T17:04:28;1.30;;;1.20;;
59052;SDS011;44843;44.728;10.396;2023-04-03T17:06:53;5.07;;;1.20;;